Time;durP1;ratioP1;P1;durP2;ratioP2;P2;SDS_P1;SDS_P2;PMS_P1;PMS_P2;Temp;Humidity;BMP_temperature;BMP_pressure;BME280_temperature;BME280_humidity;BME280_pressure;Samples;Min_cycle;Max_cycle;Signal;HPM_P1;HPM_P2
2024/02/02 00:02:14;;;;;;;;;;;;;;;-144.99;100.00;52558.16;5016697;28;19930;-73
2024/02/02 00:04:42;;;;;;;;;;;;;;;-144.99;100.00;52517.41;5018218;28;19991;-71
2024/02/02 00:07:09;;;;;;;;;;;;;;;-144.99;100.00;52501.09;5009832;28;19933;-71
2024/02/02 00:09:35;;;;;;;;;;;;;;;-144.99;100.00;52550.00;5009728;28;19937;-72
2024/02/02 00:12:03;;;;;;;;;;;;;;;-144.99;100.00;52566.31;5010800;28;19933;-72
2024/02/02 00:14:30;;;;;;;;;;;;;;;-144.99;100.00;52537.78;5005285;28;19926;-72
2024/02/02 00:16:56;;;;;;;;;;;;;;;-144.99;100.00;52529.63;5008882;28;20393;-70
2024/02/02 00:19:23;;;;;;;;;;;;;;;-144.99;100.00;52560.19;5009320;28;19925;-72
2024/02/02 00:21:50;;;;;;;;;;;;;;;-144.99;100.00;52556.13;5011219;28;19930;-71
2024/02/02 00:24:17;;;;;;;;;;;;;;;-144.99;100.00;52505.16;5010078;28;19932;-70
2024/02/02 00:26:43;;;;;;;;;;;;;;;-144.99;100.00;52554.09;5006809;28;19929;-73
2024/02/02 00:29:10;;;;;;;;;;;;;;;-144.99;100.00;52517.41;5007775;28;19925;-71
2024/02/02 00:31:36;;;;;;;;;;;;;;;-144.99;100.00;52521.47;5009831;28;19937;-73
2024/02/02 00:34:03;;;;;;;;;;;;;;;-144.99;100.00;52511.28;5018318;28;19944;-71
2024/02/02 00:36:29;;;;;;;;;;;;;;;-144.99;100.00;52541.84;5009044;28;20431;-71
2024/02/02 00:38:57;;;;;;;;;;;;;;;-144.99;100.00;52550.00;5011753;28;19968;-71
2024/02/02 00:41:24;;;;;;;;;;;;;;;-144.99;100.00;52521.47;5014347;28;19984;-69
2024/02/02 00:43:50;;;;;;;;;;;;;;;-144.99;100.00;52476.63;5009642;28;20313;-70
2024/02/02 00:46:17;;;;;;;;;;;;;;;-144.99;100.00;52521.47;5008772;28;19925;-70
2024/02/02 00:48:43;;;;;;;;;;;;;;;-144.99;100.00;52533.69;5006326;28;19930;-71
2024/02/02 00:51:10;;;;;;;;;;;;;;;-144.99;100.00;52519.44;5010803;28;20376;-71
2024/02/02 00:53:36;;;;;;;;;;;;;;;-144.99;100.00;52515.34;5011159;28;20350;-71
2024/02/02 00:56:04;;;;;;;;;;;;;;;-144.99;100.00;52541.84;5009393;28;19937;-70
2024/02/02 00:58:31;;;;;;;;;;;;;;;-144.99;100.00;52513.31;5003993;28;19992;-70
2024/02/02 01:00:57;;;;;;;;;;;;;;;-144.99;100.00;52564.28;5003939;28;20004;-71
2024/02/02 01:03:23;;;;;;;;;;;;;;;-144.99;100.00;52545.94;5008801;28;19976;-71
2024/02/02 01:05:50;;;;;;;;;;;;;;;-144.99;100.00;52521.47;5009903;28;19929;-71
2024/02/02 01:08:16;;;;;;;;;;;;;;;-144.99;100.00;52527.59;5007433;28;19983;-71
2024/02/02 01:10:43;;;;;;;;;;;;;;;-144.99;100.00;52515.34;5004193;28;19930;-71
2024/02/02 01:13:11;;;;;;;;;;;;;;;-144.99;100.00;52511.28;5006643;28;19973;-71
2024/02/02 01:15:38;;;;;;;;;;;;;;;-144.99;100.00;52497.00;5006011;28;19929;-72
2024/02/02 01:18:07;;;;;;;;;;;;;;;-144.99;100.00;52521.47;5017965;28;19967;-71
2024/02/02 01:20:34;;;;;;;;;;;;;;;-144.99;100.00;52550.00;5009010;28;19940;-70
2024/02/02 01:23:00;;;;;;;;;;;;;;;-144.99;100.00;52541.84;5008689;28;19929;-70
2024/02/02 01:25:29;;;;;;;;;;;;;;;-144.99;100.00;52533.69;5008338;28;19925;-72
2024/02/02 01:27:55;;;;;;;;;;;;;;;-144.99;100.00;52527.59;5004425;28;20007;-71
2024/02/02 01:30:23;;;;;;;;;;;;;;;-144.99;100.00;52507.19;5005358;28;19933;-72
2024/02/02 01:32:50;;;;;;;;;;;;;;;-144.99;100.00;52545.94;5003203;28;20004;-72
2024/02/02 01:35:17;;;;;;;;;;;;;;;-144.99;100.00;52533.69;5007119;28;19925;-72
2024/02/02 01:37:43;;;;;;;;;;;;;;;-144.99;100.00;52501.09;5008562;28;20419;-73
2024/02/02 01:40:13;;;;;;;;;;;;;;;-144.99;100.00;52523.50;5007535;28;20365;-71
2024/02/02 01:42:39;;;;;;;;;;;;;;;-144.99;100.00;52517.41;5004130;28;19925;-72
2024/02/02 01:45:06;;;;;;;;;;;;;;;-144.99;100.00;52550.00;5005526;28;20002;-71
2024/02/02 01:47:34;;;;;;;;;;;;;;;-144.99;100.00;52545.94;5008297;28;19968;-72
2024/02/02 01:50:01;;;;;;;;;;;;;;;-144.99;100.00;52527.59;5006660;28;20025;-70
2024/02/02 01:52:28;;;;;;;;;;;;;;;-144.99;100.00;52568.34;5005456;28;19933;-72
2024/02/02 01:54:55;;;;;;;;;;;;;;;-144.99;100.00;52552.03;5013083;28;19935;-70
2024/02/02 01:57:22;;;;;;;;;;;;;;;-144.99;100.00;52509.25;5009038;28;20379;-71
2024/02/02 01:59:48;;;;;;;;;;;;;;;-144.99;100.00;52484.78;5008147;28;19925;-71
2024/02/02 02:02:15;;;;;;;;;;;;;;;-144.99;100.00;52497.00;5007015;28;19983;-69
2024/02/02 02:04:43;;;;;;;;;;;;;;;-144.99;100.00;52515.34;5004340;28;19980;-71
2024/02/02 02:07:10;;;;;;;;;;;;;;;-144.99;100.00;52497.00;5006629;28;19984;-71
2024/02/02 02:09:37;;;;;;;;;;;;;;;-144.99;100.00;52519.44;5004241;28;19961;-72
2024/02/02 02:12:03;;;;;;;;;;;;;;;-144.99;100.00;52513.31;5006452;28;19937;-71
2024/02/02 02:14:30;;;;;;;;;;;;;;;-144.99;100.00;52488.84;5004695;28;19926;-71
2024/02/02 02:16:56;;;;;;;;;;;;;;;-144.99;100.00;52533.69;5007372;28;19980;-72
2024/02/02 02:19:23;;;;;;;;;;;;;;;-144.99;100.00;52547.97;5005551;28;19933;-71
2024/02/02 02:21:51;;;;;;;;;;;;;;;-144.99;100.00;52513.31;5011856;28;19933;-71
2024/02/02 02:24:17;;;;;;;;;;;;;;;-144.99;100.00;52525.56;5010450;28;19937;-71
2024/02/02 02:26:44;;;;;;;;;;;;;;;-144.99;100.00;52550.00;5009699;28;20361;-71
2024/02/02 02:29:11;;;;;;;;;;;;;;;-144.99;100.00;52521.47;5016454;28;20326;-71
2024/02/02 02:31:38;;;;;;;;;;;;;;;-144.99;100.00;52525.56;5011613;28;20072;-70
2024/02/02 02:34:04;;;;;;;;;;;;;;;-144.99;100.00;52529.63;5011477;28;19933;-70
2024/02/02 02:36:34;;;;;;;;;;;;;;;-144.99;100.00;52566.31;5004209;28;20296;-71
2024/02/02 02:39:05;;;;;;;;;;;;;;;-144.99;100.00;52484.78;5009941;28;20389;-69
2024/02/02 02:41:31;;;;;;;;;;;;;;;-144.99;100.00;52509.25;5011099;28;20023;-71
2024/02/02 02:43:58;;;;;;;;;;;;;;;-144.99;100.00;52525.56;5010965;28;19925;-72
2024/02/02 02:46:24;;;;;;;;;;;;;;;-144.99;100.00;52513.31;5008527;28;20048;-71
2024/02/02 02:48:51;;;;;;;;;;;;;;;-144.99;100.00;52501.09;5008881;28;20420;-71
2024/02/02 02:51:18;;;;;;;;;;;;;;;-144.99;100.00;52492.94;5010281;28;19971;-71
2024/02/02 02:53:44;;;;;;;;;;;;;;;-144.99;100.00;52509.25;5010475;28;19976;-71
2024/02/02 02:56:12;;;;;;;;;;;;;;;-144.99;100.00;52492.94;5009409;28;19925;-71
2024/02/02 02:58:39;;;;;;;;;;;;;;;-144.99;100.00;52513.31;5009855;28;20612;-71
2024/02/02 03:01:05;;;;;;;;;;;;;;;-144.99;100.00;52550.00;5006852;28;19929;-70
2024/02/02 03:03:32;;;;;;;;;;;;;;;-144.99;100.00;52521.47;5011063;28;19995;-71
2024/02/02 03:05:58;;;;;;;;;;;;;;;-144.99;100.00;52533.69;5008319;28;19979;-70
2024/02/02 03:08:25;;;;;;;;;;;;;;;-144.99;100.00;52529.63;5001824;28;20478;-71
2024/02/02 03:10:51;;;;;;;;;;;;;;;-144.99;100.00;52497.00;5009890;28;19969;-71
2024/02/02 03:13:19;;;;;;;;;;;;;;;-144.99;100.00;52545.94;5010188;28;19994;-71
2024/02/02 03:15:46;;;;;;;;;;;;;;;-144.99;100.00;52527.59;5012675;28;19940;-70
2024/02/02 03:18:14;;;;;;;;;;;;;;;-144.99;100.00;52513.31;5007769;28;19930;-69
2024/02/02 03:20:40;;;;;;;;;;;;;;;-144.99;100.00;52554.09;5009543;28;19929;-71
2024/02/02 03:23:07;;;;;;;;;;;;;;;-144.99;100.00;52527.59;5011120;28;19984;-71
2024/02/02 03:25:33;;;;;;;;;;;;;;;-144.99;100.00;52501.09;5010336;28;19933;-70
2024/02/02 03:28:00;;;;;;;;;;;;;;;-144.99;100.00;52499.06;5009709;28;20344;-72
2024/02/02 03:30:28;;;;;;;;;;;;;;;-144.99;100.00;52490.91;5004356;28;19987;-71
2024/02/02 03:32:54;;;;;;;;;;;;;;;-144.99;100.00;52513.31;5007394;28;19926;-71
2024/02/02 03:35:20;;;;;;;;;;;;;;;-144.99;100.00;52517.41;5009373;28;19953;-70
2024/02/02 03:37:47;;;;;;;;;;;;;;;-144.99;100.00;52529.63;5004738;28;19988;-70
2024/02/02 03:40:13;;;;;;;;;;;;;;;-144.99;100.00;52513.31;5006262;28;19972;-71
2024/02/02 03:42:40;;;;;;;;;;;;;;;-144.99;100.00;52492.94;5009301;28;19926;-71
2024/02/02 03:45:07;;;;;;;;;;;;;;;-144.99;100.00;52517.41;5018578;28;19933;-71
2024/02/02 03:47:35;;;;;;;;;;;;;;;-144.99;100.00;52529.63;5011936;28;19933;-71
2024/02/02 03:50:01;;;;;;;;;;;;;;;-144.99;100.00;52550.00;5007371;28;20199;-70
2024/02/02 03:52:28;;;;;;;;;;;;;;;-144.99;100.00;52490.91;5006576;28;20016;-72
2024/02/02 03:54:54;;;;;;;;;;;;;;;-144.99;100.00;52511.28;5008236;28;19934;-72
2024/02/02 03:57:21;;;;;;;;;;;;;;;-144.99;100.00;52517.41;5008271;28;19937;-72
2024/02/02 03:59:47;;;;;;;;;;;;;;;-144.99;100.00;52501.09;5011034;28;19930;-72
2024/02/02 04:02:14;;;;;;;;;;;;;;;-144.99;100.00;52501.09;5001237;28;20016;-71
2024/02/02 04:04:42;;;;;;;;;;;;;;;-144.99;100.00;52539.81;5010613;28;19926;-72
2024/02/02 04:07:09;;;;;;;;;;;;;;;-144.99;100.00;52460.31;5008719;28;19936;-72
2024/02/02 04:09:35;;;;;;;;;;;;;;;-144.99;100.00;52525.56;5014689;28;19929;-71
2024/02/02 04:12:02;;;;;;;;;;;;;;;-144.99;100.00;52537.78;5021268;28;19933;-71
2024/02/02 04:14:28;;;;;;;;;;;;;;;-144.99;100.00;52484.78;5021703;28;19944;-73
2024/02/02 04:16:55;;;;;;;;;;;;;;;-144.99;100.00;52505.16;5025645;28;19953;-72
2024/02/02 04:19:21;;;;;;;;;;;;;;;-144.99;100.00;52513.31;5029275;28;19936;-72
2024/02/02 04:21:49;;;;;;;;;;;;;;;-144.99;100.00;52517.41;5024640;28;19926;-72
2024/02/02 04:24:16;;;;;;;;;;;;;;;-144.99;100.00;52497.00;5017431;28;20402;-71
2024/02/02 04:26:43;;;;;;;;;;;;;;;-144.99;100.00;52476.63;5005473;28;19933;-71
2024/02/02 04:29:09;;;;;;;;;;;;;;;-144.99;100.00;52499.06;5008850;28;20372;-71
2024/02/02 04:31:36;;;;;;;;;;;;;;;-144.99;100.00;52497.00;5009126;28;20020;-71
2024/02/02 04:34:02;;;;;;;;;;;;;;;-144.99;100.00;52488.84;5002871;28;19972;-72
2024/02/02 04:36:29;;;;;;;;;;;;;;;-144.99;100.00;52533.69;5003260;28;19929;-71
2024/02/02 04:38:57;;;;;;;;;;;;;;;-144.99;100.00;52501.09;5007923;28;20040;-72
2024/02/02 04:41:24;;;;;;;;;;;;;;;-144.99;100.00;52501.09;5005510;28;19926;-69
2024/02/02 04:43:50;;;;;;;;;;;;;;;-144.99;100.00;52537.78;5007896;28;20336;-70
2024/02/02 04:46:17;;;;;;;;;;;;;;;-144.99;100.00;52476.63;5004227;28;19961;-69
2024/02/02 04:48:43;;;;;;;;;;;;;;;-144.99;100.00;52501.09;5006459;28;19984;-69
2024/02/02 04:51:10;;;;;;;;;;;;;;;-144.99;100.00;52550.00;5006303;28;20033;-70
2024/02/02 04:53:36;;;;;;;;;;;;;;;-144.99;100.00;52527.59;5005750;28;20165;-69
2024/02/02 04:56:04;;;;;;;;;;;;;;;-144.99;100.00;52499.06;5000449;28;19926;-69
2024/02/02 04:58:31;;;;;;;;;;;;;;;-144.99;100.00;52505.16;5011677;28;19925;-70
2024/02/02 05:00:57;;;;;;;;;;;;;;;-144.99;100.00;52521.47;5008460;28;20439;-71
2024/02/02 05:03:24;;;;;;;;;;;;;;;-144.99;100.00;52554.09;5006730;28;19929;-66
2024/02/02 05:05:59;;;;;;;;;;;;;;;-144.99;100.00;52503.13;5126289;27;19922;-69
2024/02/02 05:08:26;;;;;;;;;;;;;;;-144.99;100.00;52492.94;5127582;27;19927;-68
2024/02/02 05:10:52;;;;;;;;;;;;;;;-144.99;100.00;52476.63;5124093;27;19924;-68
2024/02/02 05:13:19;;;;;;;;;;;;;;;-144.99;100.00;52537.78;5109428;27;19935;-68
2024/02/02 05:15:45;;;;;;;;;;;;;;;-144.99;100.00;52492.94;5110628;27;19924;-69
2024/02/02 05:18:12;;;;;;;;;;;;;;;-144.99;100.00;52499.06;5104445;28;19940;-68
2024/02/02 05:20:39;;;;;;;;;;;;;;;-144.99;100.00;52505.16;5116958;27;20474;-68
2024/02/02 05:23:07;;;;;;;;;;;;;;;-144.99;100.00;52545.94;5108810;28;19927;-69
2024/02/02 05:25:35;;;;;;;;;;;;;;;-144.99;100.00;52541.84;5106129;28;19924;-67
2024/02/02 05:28:03;;;;;;;;;;;;;;;-144.99;100.00;52480.72;5108884;27;20442;-67
2024/02/02 05:30:29;;;;;;;;;;;;;;;-144.99;100.00;52543.91;5104511;28;20001;-67
2024/02/02 05:32:56;;;;;;;;;;;;;;;-144.99;100.00;52513.31;5103119;28;20016;-67
2024/02/02 05:35:22;;;;;;;;;;;;;;;-144.99;100.00;52550.00;5107855;28;19932;-67
2024/02/02 05:37:49;;;;;;;;;;;;;;;-144.99;100.00;52550.00;5109453;27;20531;-67
2024/02/02 05:40:17;;;;;;;;;;;;;;;-144.99;100.00;52529.63;5101057;27;19971;-66
2024/02/02 05:42:45;;;;;;;;;;;;;;;-144.99;100.00;52513.31;5112038;27;19928;-74
2024/02/02 05:45:12;;;;;;;;;;;;;;;-144.99;100.00;52525.56;5116560;27;19928;-74
2024/02/02 05:47:38;;;;;;;;;;;;;;;-144.99;100.00;52509.25;5111664;27;20305;-72
2024/02/02 05:50:05;;;;;;;;;;;;;;;-144.99;100.00;52503.13;5098263;28;19945;-72
2024/02/02 05:52:32;;;;;;;;;;;;;;;-144.99;100.00;52556.13;5104133;28;19978;-72
2024/02/02 05:54:58;;;;;;;;;;;;;;;-144.99;100.00;52494.97;5109371;27;19969;-72
2024/02/02 05:57:26;;;;;;;;;;;;;;;-144.99;100.00;52521.47;5113865;28;20457;-72
2024/02/02 05:59:53;;;;;;;;;;;;;;;-144.99;100.00;52529.63;5105855;27;21107;-74
2024/02/02 06:02:21;;;;;;;;;;;;;;;-144.99;100.00;52484.78;5110106;28;20140;-74
2024/02/02 06:04:47;;;;;;;;;;;;;;;-144.99;100.00;52497.00;5112216;27;19927;-73
2024/02/02 06:07:15;;;;;;;;;;;;;;;-144.99;100.00;52480.72;5113657;28;20381;-73
2024/02/02 06:09:41;;;;;;;;;;;;;;;-144.99;100.00;52492.94;5102183;28;20331;-74
2024/02/02 06:12:08;;;;;;;;;;;;;;;-144.99;100.00;52537.78;5102513;28;19928;-75
2024/02/02 06:14:36;;;;;;;;;;;;;;;-144.99;100.00;52556.13;5104923;28;20378;-67
2024/02/02 06:17:03;;;;;;;;;;;;;;;-144.99;100.00;52484.78;5087567;28;20405;-68
2024/02/02 06:19:29;;;;;;;;;;;;;;;-144.99;100.00;52492.94;5090958;28;19936;-67
2024/02/02 06:21:56;;;;;;;;;;;;;;;-144.99;100.00;52501.09;5086519;28;20243;-68
2024/02/02 06:24:24;;;;;;;;;;;;;;;-144.99;100.00;52511.28;5090609;28;20335;-68
2024/02/02 06:26:51;;;;;;;;;;;;;;;-144.99;100.00;52519.44;5088108;28;20054;-68
2024/02/02 06:29:18;;;;;;;;;;;;;;;-144.99;100.00;52509.25;5092181;28;19961;-68
2024/02/02 06:31:46;;;;;;;;;;;;;;;-144.99;100.00;52529.63;5086242;28;20378;-74
2024/02/02 06:34:12;;;;;;;;;;;;;;;-144.99;100.00;52476.63;5096514;28;20381;-73
2024/02/02 06:36:39;;;;;;;;;;;;;;;-144.99;100.00;52492.94;5093848;28;19928;-73
2024/02/02 06:39:06;;;;;;;;;;;;;;;-144.99;100.00;52513.31;5099277;28;19932;-74
2024/02/02 06:41:33;;;;;;;;;;;;;;;-144.99;100.00;52513.31;5100381;28;19968;-73
2024/02/02 06:43:59;;;;;;;;;;;;;;;-144.99;100.00;52531.66;5096021;28;19935;-73
2024/02/02 06:46:26;;;;;;;;;;;;;;;-144.99;100.00;52464.41;5089220;28;20160;-72
2024/02/02 06:48:54;;;;;;;;;;;;;;;-144.99;100.00;52501.09;4385556;28;10000730;-73
2024/02/02 06:51:20;;;;;;;;;;;;;;;-144.99;100.00;52505.16;5093122;28;19935;-74
2024/02/02 06:53:50;;;;;;;;;;;;;;;-144.99;100.00;52501.09;5103648;28;19924;-73
2024/02/02 06:56:38;;;;;;;;;;;;;;;-144.99;100.00;52458.28;5089834;28;19933;-73
2024/02/02 06:59:05;;;;;;;;;;;;;;;-144.99;100.00;52509.25;5088768;28;19973;-72
2024/02/02 07:01:31;;;;;;;;;;;;;;;-144.99;100.00;52513.31;5091047;28;19976;-72
2024/02/02 07:04:01;;;;;;;;;;;;;;;-144.99;100.00;52503.13;5092173;28;19928;-72
2024/02/02 07:06:28;;;;;;;;;;;;;;;-144.99;100.00;52537.78;5088119;28;19928;-73
2024/02/02 07:09:00;;;;;;;;;;;;;;;-144.99;100.00;52529.63;5090869;28;20368;-73
2024/02/02 07:11:42;;;;;;;;;;;;;;;-144.99;100.00;52505.16;5085879;28;19924;-73
2024/02/02 07:14:10;;;;;;;;;;;;;;;-144.99;100.00;52484.78;5087834;28;19924;-74
2024/02/02 07:16:37;;;;;;;;;;;;;;;-144.99;100.00;52519.44;5089180;28;19929;-74
2024/02/02 07:19:09;;;;;;;;;;;;;;;-144.99;100.00;52521.47;5097509;28;19935;-74
2024/02/02 07:21:37;;;;;;;;;;;;;;;-144.99;100.00;52545.94;5093200;28;19934;-75
2024/02/02 07:24:04;;;;;;;;;;;;;;;-144.99;100.00;52507.19;5097777;28;19924;-74
2024/02/02 07:26:32;;;;;;;;;;;;;;;-144.99;100.00;52476.63;5094690;28;19932;-73
2024/02/02 07:28:59;;;;;;;;;;;;;;;-144.99;100.00;52497.00;5093180;28;19936;-73
2024/02/02 07:31:36;;;;;;;;;;;;;;;-144.99;100.00;52505.16;5095817;28;19985;-75
2024/02/02 07:34:17;;;;;;;;;;;;;;;-144.99;100.00;52501.09;5092692;28;19924;-74
2024/02/02 07:36:43;;;;;;;;;;;;;;;-144.99;100.00;52497.00;5088325;28;19928;-73
2024/02/02 07:39:15;;;;;;;;;;;;;;;-144.99;100.00;52517.41;5091788;28;19928;-73
2024/02/02 07:41:42;;;;;;;;;;;;;;;-144.99;100.00;52545.94;5104662;28;19934;-73
2024/02/02 07:44:09;;;;;;;;;;;;;;;-144.99;100.00;52505.16;5093528;28;19928;-74
2024/02/02 07:46:36;;;;;;;;;;;;;;;-144.99;100.00;52497.00;5089942;28;19924;-74
2024/02/02 07:49:03;;;;;;;;;;;;;;;-144.99;100.00;52488.84;5088221;28;19925;-74
2024/02/02 07:51:32;;;;;;;;;;;;;;;-144.99;100.00;52509.25;5092957;28;19946;-74
2024/02/02 07:53:58;;;;;;;;;;;;;;;-144.99;100.00;52541.84;4741627;28;9999988;-73
2024/02/02 07:56:25;;;;;;;;;;;;;;;-144.99;100.00;52501.09;5089313;28;19923;-73
2024/02/02 07:58:52;;;;;;;;;;;;;;;-144.99;100.00;52505.16;5086324;28;20455;-74
2024/02/02 08:01:19;;;;;;;;;;;;;;;-144.99;100.00;52509.25;5088686;28;19936;-74
2024/02/02 08:03:46;;;;;;;;;;;;;;;-144.99;100.00;52517.41;5096888;28;19935;-74
2024/02/02 08:06:13;;;;;;;;;;;;;;;-144.99;100.00;52523.50;5094274;28;20305;-75
2024/02/02 08:08:41;;;;;;;;;;;;;;;-144.99;100.00;52521.47;5089909;28;19928;-73
2024/02/02 08:11:08;;;;;;;;;;;;;;;-144.99;100.00;52474.59;5086209;28;20374;-73
2024/02/02 08:13:34;;;;;;;;;;;;;;;-144.99;100.00;52513.31;5082853;28;20177;-74
2024/02/02 08:16:01;;;;;;;;;;;;;;;-144.99;100.00;52480.72;5097204;28;19931;-73
2024/02/02 08:18:27;;;;;;;;;;;;;;;-144.99;100.00;52541.84;5097971;28;19981;-73
2024/02/02 08:20:54;;;;;;;;;;;;;;;-144.99;100.00;52492.94;5092551;28;19962;-73
2024/02/02 08:23:21;;;;;;;;;;;;;;;-144.99;100.00;52484.78;5093738;28;19970;-74
2024/02/02 08:25:49;;;;;;;;;;;;;;;-144.99;100.00;52509.25;5103952;28;19936;-73
2024/02/02 08:28:16;;;;;;;;;;;;;;;-144.99;100.00;52492.94;5096933;28;19928;-73
2024/02/02 08:30:42;;;;;;;;;;;;;;;-144.99;100.00;52507.19;5088418;28;19927;-74
2024/02/02 08:33:09;;;;;;;;;;;;;;;-144.99;100.00;52529.63;5087579;28;19931;-73
2024/02/02 08:35:35;;;;;;;;;;;;;;;-144.99;100.00;52488.84;5092608;28;20424;-74
2024/02/02 08:38:03;;;;;;;;;;;;;;;-144.99;100.00;52541.84;5090794;28;19931;-74
2024/02/02 08:40:33;;;;;;;;;;;;;;;-144.99;100.00;52547.97;5089211;28;19944;-74
2024/02/02 08:43:02;;;;;;;;;;;;;;;-144.99;100.00;52513.31;5085192;28;19924;-74
2024/02/02 08:45:55;;;;;;;;;;;;;;;-144.99;100.00;52541.84;5087516;28;20058;-74
2024/02/02 08:48:29;;;;;;;;;;;;;;;-144.99;100.00;52488.84;5093441;28;19932;-73
2024/02/02 08:50:58;;;;;;;;;;;;;;;-144.99;100.00;52513.31;5084035;28;19928;-74
2024/02/02 08:53:25;;;;;;;;;;;;;;;-144.99;100.00;52539.81;5092035;28;19924;-74
2024/02/02 08:55:51;;;;;;;;;;;;;;;-144.99;100.00;52501.09;5107122;28;19924;-74
2024/02/02 08:58:21;;;;;;;;;;;;;;;-144.99;100.00;52497.00;5121584;28;19927;-74
2024/02/02 09:00:49;;;;;;;;;;;;;;;-144.99;100.00;52547.97;5115322;28;19916;-74
2024/02/02 09:03:23;;;;;;;;;;;;;;;-144.99;100.00;52503.13;5102438;28;19962;-73
2024/02/02 09:05:53;;;;;;;;;;;;;;;-144.99;100.00;52533.69;5081992;28;19947;-75
2024/02/02 09:08:39;;;;;;;;;;;;;;;-144.99;100.00;52505.16;5092743;28;19981;-74
2024/02/02 09:11:20;;;;;;;;;;;;;;;-144.99;100.00;52509.25;5090667;28;19934;-74
2024/02/02 09:13:48;;;;;;;;;;;;;;;-144.99;100.00;52513.31;5089052;28;19932;-75
2024/02/02 09:16:16;;;;;;;;;;;;;;;-144.99;100.00;52497.00;5087701;28;19927;-76
2024/02/02 09:18:44;;;;;;;;;;;;;;;-144.99;100.00;52492.94;5089769;28;20007;-74
2024/02/02 09:21:11;;;;;;;;;;;;;;;-144.99;100.00;52525.56;5090286;28;19950;-75
2024/02/02 09:23:39;;;;;;;;;;;;;;;-144.99;100.00;52515.34;5086417;28;19985;-74
2024/02/02 09:26:09;;;;;;;;;;;;;;;-144.99;100.00;52509.25;5093169;28;19928;-74
2024/02/02 09:28:40;;;;;;;;;;;;;;;-144.99;100.00;52525.56;5093752;28;19924;-74
2024/02/02 09:31:11;;;;;;;;;;;;;;;-144.99;100.00;52513.31;5092157;28;19927;-73
2024/02/02 09:33:44;;;;;;;;;;;;;;;-144.99;100.00;52537.78;5088896;28;19928;-74
2024/02/02 09:36:11;;;;;;;;;;;;;;;-144.99;100.00;52525.56;5091548;28;19927;-74
2024/02/02 09:38:38;;;;;;;;;;;;;;;-144.99;100.00;52521.47;5091906;28;20332;-75
2024/02/02 09:41:19;;;;;;;;;;;;;;;-144.99;100.00;52511.28;5097530;28;19950;-75
2024/02/02 09:43:48;;;;;;;;;;;;;;;-144.99;100.00;52492.94;5082344;28;19988;-74
2024/02/02 09:46:23;;;;;;;;;;;;;;;-144.99;100.00;52525.56;5084142;28;19932;-74
2024/02/02 09:48:56;;;;;;;;;;;;;;;-144.99;100.00;52517.41;5092240;28;19990;-74
2024/02/02 09:51:28;;;;;;;;;;;;;;;-144.99;100.00;52525.56;5093406;28;19960;-74
2024/02/02 09:54:12;;;;;;;;;;;;;;;-144.99;100.00;52529.63;5103778;28;19946;-74
2024/02/02 09:56:44;;;;;;;;;;;;;;;-144.99;100.00;52562.25;5092110;28;19995;-74
2024/02/02 09:59:16;;;;;;;;;;;;;;;-144.99;100.00;52513.31;5093276;28;19947;-73
2024/02/02 10:01:54;;;;;;;;;;;;;;;-144.99;100.00;52480.72;5094597;28;20146;-74
2024/02/02 10:04:26;;;;;;;;;;;;;;;-144.99;100.00;52497.00;5091152;28;19946;-74
2024/02/02 10:07:01;;;;;;;;;;;;;;;-144.99;100.00;52501.09;5090234;28;19965;-74
2024/02/02 10:09:38;;;;;;;;;;;;;;;-144.99;100.00;52505.16;5091357;28;19928;-74
2024/02/02 10:12:10;;;;;;;;;;;;;;;-144.99;100.00;52533.69;5094653;28;19972;-74
2024/02/02 10:14:52;;;;;;;;;;;;;;;-144.99;100.00;52497.00;5096293;28;20336;-74
2024/02/02 10:17:26;;;;;;;;;;;;;;;-144.99;100.00;52537.78;5085223;28;19924;-74
2024/02/02 10:20:17;;;;;;;;;;;;;;;-144.99;100.00;52521.47;5091089;28;20178;-74
2024/02/02 10:23:04;;;;;;;;;;;;;;;-144.99;100.00;52570.38;5097408;28;20419;-74
2024/02/02 10:25:41;;;;;;;;;;;;;;;-144.99;100.00;52478.66;5082656;28;19935;-74
2024/02/02 10:28:15;;;;;;;;;;;;;;;-144.99;100.00;52513.31;5091977;28;20053;-74
2024/02/02 10:30:49;;;;;;;;;;;;;;;-144.99;100.00;52505.16;5094055;28;20484;-74
2024/02/02 10:33:25;;;;;;;;;;;;;;;-144.99;100.00;52529.63;5085557;28;19978;-74
2024/02/02 10:35:54;;;;;;;;;;;;;;;-144.99;100.00;52537.78;5108397;28;19975;-74
2024/02/02 10:38:29;;;;;;;;;;;;;;;-144.99;100.00;52517.41;5099336;28;19932;-74
2024/02/02 10:41:01;;;;;;;;;;;;;;;-144.99;100.00;52509.25;5094241;28;19927;-73
2024/02/02 10:43:29;;;;;;;;;;;;;;;-144.99;100.00;52480.72;5089086;28;20447;-74
2024/02/02 10:46:02;;;;;;;;;;;;;;;-144.99;100.00;52503.13;5090077;28;20414;-74
2024/02/02 10:48:42;;;;;;;;;;;;;;;-144.99;100.00;52521.47;5092508;28;19924;-75
2024/02/02 10:51:13;;;;;;;;;;;;;;;-144.99;100.00;52505.16;5091057;28;20078;-74
2024/02/02 10:53:46;;;;;;;;;;;;;;;-144.99;100.00;52501.09;5096099;28;19931;-74
2024/02/02 10:56:19;;;;;;;;;;;;;;;-144.99;100.00;52525.56;5089523;28;19935;-74
2024/02/02 10:58:54;;;;;;;;;;;;;;;-144.99;100.00;52513.31;5094330;28;19924;-74
2024/02/02 11:01:25;;;;;;;;;;;;;;;-144.99;100.00;52545.94;5092841;28;19928;-73
2024/02/02 11:03:56;;;;;;;;;;;;;;;-144.99;100.00;52537.78;5099714;28;19931;-73
2024/02/02 11:06:27;;;;;;;;;;;;;;;-144.99;100.00;52529.63;5095869;28;20381;-74
2024/02/02 11:08:57;;;;;;;;;;;;;;;-144.99;100.00;52525.56;5086444;28;20447;-74
2024/02/02 11:11:26;;;;;;;;;;;;;;;-144.99;100.00;52492.94;5089713;28;19975;-74
2024/02/02 11:13:56;;;;;;;;;;;;;;;-144.99;100.00;52511.28;5093926;28;19924;-74
2024/02/02 11:16:46;;;;;;;;;;;;;;;-144.99;100.00;52537.78;5092701;28;20337;-74
2024/02/02 11:19:18;;;;;;;;;;;;;;;-144.99;100.00;52541.84;5101027;28;20188;-74
2024/02/02 11:21:59;;;;;;;;;;;;;;;-144.99;100.00;52529.63;5107395;28;19938;-75
2024/02/02 11:24:28;;;;;;;;;;;;;;;-144.99;100.00;52511.28;5099856;28;19928;-74
2024/02/02 11:26:57;;;;;;;;;;;;;;;-144.99;100.00;52525.56;5094657;28;20018;-74
2024/02/02 11:29:31;;;;;;;;;;;;;;;-144.99;100.00;52529.63;5098658;28;19940;-74
2024/02/02 11:32:03;;;;;;;;;;;;;;;-144.99;100.00;52501.09;5089252;28;20358;-75
2024/02/02 11:34:34;;;;;;;;;;;;;;;-144.99;100.00;52525.56;5080819;28;20342;-74
2024/02/02 11:37:07;;;;;;;;;;;;;;;-144.99;100.00;52513.31;5097385;28;19928;-74
2024/02/02 11:39:39;;;;;;;;;;;;;;;-144.99;100.00;52484.78;5085752;28;19928;-74
2024/02/02 11:42:07;;;;;;;;;;;;;;;-144.99;100.00;52501.09;5092931;28;19928;-74
2024/02/02 11:44:34;;;;;;;;;;;;;;;-144.99;100.00;52517.41;5115345;28;19964;-74
2024/02/02 11:47:03;;;;;;;;;;;;;;;-144.99;100.00;52501.09;5115686;28;19928;-74
2024/02/02 11:49:33;;;;;;;;;;;;;;;-144.99;100.00;52545.94;5101946;28;19924;-75
2024/02/02 11:52:04;;;;;;;;;;;;;;;-144.99;100.00;52509.25;5095681;28;19924;-73
2024/02/02 11:54:33;;;;;;;;;;;;;;;-144.99;100.00;52521.47;5086698;28;19932;-74
2024/02/02 11:57:02;;;;;;;;;;;;;;;-144.99;100.00;52545.94;5095275;28;20481;-73
2024/02/02 11:59:31;;;;;;;;;;;;;;;-144.99;100.00;52492.94;5078986;28;19940;-74
2024/02/02 12:02:04;;;;;;;;;;;;;;;-144.99;100.00;52523.50;5093438;28;19931;-73
2024/02/02 12:04:37;;;;;;;;;;;;;;;-144.99;100.00;52505.16;5086049;28;19940;-74
2024/02/02 12:07:12;;;;;;;;;;;;;;;-144.99;100.00;52513.31;5094931;28;19935;-74
2024/02/02 12:09:40;;;;;;;;;;;;;;;-144.99;100.00;52484.78;5089719;28;19924;-73
2024/02/02 12:12:11;;;;;;;;;;;;;;;-144.99;100.00;52513.31;5085612;28;20308;-73
2024/02/02 12:14:47;;;;;;;;;;;;;;;-144.99;100.00;52497.00;5096018;28;19927;-73
2024/02/02 12:17:14;;;;;;;;;;;;;;;-144.99;100.00;52492.94;5092587;28;19928;-73
2024/02/02 12:19:43;;;;;;;;;;;;;;;-144.99;100.00;52529.63;5092900;28;20015;-73
2024/02/02 12:22:11;;;;;;;;;;;;;;;-144.99;100.00;52533.69;5088776;28;20294;-73
2024/02/02 12:24:37;;;;;;;;;;;;;;;-144.99;100.00;52478.66;5096732;28;19928;-74
2024/02/02 12:27:05;;;;;;;;;;;;;;;-144.99;100.00;52501.09;5086467;28;20386;-74